sensor_id;sensor_type;location;lat;lon;timestamp;P1;durP1;ratioP1;P2;durP2;ratioP2
37280;SDS011;23169;41.804;12.596;2023-02-18T00:01:28;34.17;;;18.10;;
37280;SDS011;23169;41.804;12.596;2023-02-18T00:03:56;31.10;;;17.45;;
37280;SDS011;23169;41.804;12.596;2023-02-18T00:06:26;31.00;;;15.95;;
37280;SDS011;23169;41.804;12.596;2023-02-18T00:08:59;31.17;;;17.02;;
37280;SDS011;23169;41.804;12.596;2023-02-18T00:11:29;29.50;;;16.25;;
37280;SDS011;23169;41.804;12.596;2023-02-18T00:13:58;26.38;;;15.82;;
37280;SDS011;23169;41.804;12.596;2023-02-18T00:16:29;28.67;;;15.68;;
37280;SDS011;23169;41.804;12.596;2023-02-18T00:18:57;27.17;;;15.05;;
37280;SDS011;23169;41.804;12.596;2023-02-18T00:21:26;28.52;;;16.05;;
37280;SDS011;23169;41.804;12.596;2023-02-18T00:23:54;27.88;;;15.57;;
37280;SDS011;23169;41.804;12.596;2023-02-18T00:26:22;30.27;;;17.00;;
37280;SDS011;23169;41.804;12.596;2023-02-18T00:28:50;30.85;;;16.60;;
37280;SDS011;23169;41.804;12.596;2023-02-18T00:31:19;30.23;;;16.33;;
37280;SDS011;23169;41.804;12.596;2023-02-18T00:33:53;28.67;;;15.32;;
37280;SDS011;23169;41.804;12.596;2023-02-18T00:36:21;30.55;;;17.95;;
37280;SDS011;23169;41.804;12.596;2023-02-18T00:38:51;29.55;;;16.70;;
37280;SDS011;23169;41.804;12.596;2023-02-18T00:41:21;27.98;;;15.30;;
37280;SDS011;23169;41.804;12.596;2023-02-18T00:43:50;28.70;;;16.27;;
37280;SDS011;23169;41.804;12.596;2023-02-18T00:46:17;33.22;;;16.80;;
37280;SDS011;23169;41.804;12.596;2023-02-18T00:48:45;30.83;;;15.98;;
37280;SDS011;23169;41.804;12.596;2023-02-18T00:51:13;29.13;;;16.15;;
37280;SDS011;23169;41.804;12.596;2023-02-18T00:53:41;29.73;;;15.60;;
37280;SDS011;23169;41.804;12.596;2023-02-18T00:56:08;28.88;;;16.13;;
37280;SDS011;23169;41.804;12.596;2023-02-18T01:01:04;28.55;;;14.77;;
37280;SDS011;23169;41.804;12.596;2023-02-18T01:03:34;29.73;;;16.30;;
37280;SDS011;23169;41.804;12.596;2023-02-18T01:06:22;30.67;;;15.70;;
37280;SDS011;23169;41.804;12.596;2023-02-18T01:08:50;28.80;;;15.57;;
37280;SDS011;23169;41.804;12.596;2023-02-18T01:11:19;30.63;;;15.85;;
37280;SDS011;23169;41.804;12.596;2023-02-18T01:13:48;29.88;;;16.70;;
37280;SDS011;23169;41.804;12.596;2023-02-18T01:16:17;29.42;;;16.40;;
37280;SDS011;23169;41.804;12.596;2023-02-18T01:18:46;30.67;;;16.73;;
37280;SDS011;23169;41.804;12.596;2023-02-18T01:21:14;30.08;;;16.60;;
37280;SDS011;23169;41.804;12.596;2023-02-18T01:23:44;30.80;;;16.42;;
37280;SDS011;23169;41.804;12.596;2023-02-18T01:26:12;30.42;;;16.55;;
37280;SDS011;23169;41.804;12.596;2023-02-18T01:28:41;28.60;;;16.60;;
37280;SDS011;23169;41.804;12.596;2023-02-18T01:31:11;31.08;;;16.90;;
37280;SDS011;23169;41.804;12.596;2023-02-18T01:33:40;30.63;;;16.67;;
37280;SDS011;23169;41.804;12.596;2023-02-18T01:36:09;29.17;;;15.95;;
37280;SDS011;23169;41.804;12.596;2023-02-18T01:38:38;30.17;;;17.55;;
37280;SDS011;23169;41.804;12.596;2023-02-18T01:41:07;33.25;;;17.67;;
37280;SDS011;23169;41.804;12.596;2023-02-18T01:43:36;31.75;;;16.48;;
37280;SDS011;23169;41.804;12.596;2023-02-18T01:51:24;31.98;;;16.75;;
37280;SDS011;23169;41.804;12.596;2023-02-18T01:56:41;29.23;;;16.35;;
37280;SDS011;23169;41.804;12.596;2023-02-18T01:59:20;29.42;;;16.38;;
37280;SDS011;23169;41.804;12.596;2023-02-18T02:01:53;29.58;;;15.30;;
37280;SDS011;23169;41.804;12.596;2023-02-18T02:04:23;31.05;;;16.25;;
37280;SDS011;23169;41.804;12.596;2023-02-18T02:06:53;30.13;;;15.43;;
37280;SDS011;23169;41.804;12.596;2023-02-18T02:09:22;28.75;;;15.45;;
37280;SDS011;23169;41.804;12.596;2023-02-18T02:14:46;30.20;;;14.13;;
37280;SDS011;23169;41.804;12.596;2023-02-18T02:36:24;31.83;;;15.75;;
37280;SDS011;23169;41.804;12.596;2023-02-18T02:39:07;29.58;;;16.30;;
37280;SDS011;23169;41.804;12.596;2023-02-18T02:41:51;32.33;;;17.85;;
37280;SDS011;23169;41.804;12.596;2023-02-18T02:44:56;33.17;;;18.75;;
37280;SDS011;23169;41.804;12.596;2023-02-18T02:48:09;35.17;;;19.35;;
37280;SDS011;23169;41.804;12.596;2023-02-18T02:51:22;33.28;;;18.35;;
37280;SDS011;23169;41.804;12.596;2023-02-18T02:54:15;35.75;;;21.05;;
37280;SDS011;23169;41.804;12.596;2023-02-18T02:56:47;37.53;;;21.08;;
37280;SDS011;23169;41.804;12.596;2023-02-18T02:59:20;36.05;;;21.63;;
37280;SDS011;23169;41.804;12.596;2023-02-18T03:02:05;35.78;;;21.17;;
37280;SDS011;23169;41.804;12.596;2023-02-18T03:07:42;35.88;;;20.80;;
37280;SDS011;23169;41.804;12.596;2023-02-18T03:13:25;36.38;;;20.67;;
37280;SDS011;23169;41.804;12.596;2023-02-18T03:19:39;35.70;;;19.95;;
37280;SDS011;23169;41.804;12.596;2023-02-18T03:21:40;33.92;;;20.48;;
37280;SDS011;23169;41.804;12.596;2023-02-18T03:24:15;34.25;;;19.85;;
37280;SDS011;23169;41.804;12.596;2023-02-18T03:26:56;37.83;;;21.75;;
37280;SDS011;23169;41.804;12.596;2023-02-18T03:29:32;36.75;;;20.73;;
37280;SDS011;23169;41.804;12.596;2023-02-18T03:32:02;39.13;;;20.63;;
37280;SDS011;23169;41.804;12.596;2023-02-18T03:34:37;38.30;;;20.50;;
37280;SDS011;23169;41.804;12.596;2023-02-18T03:37:10;35.97;;;21.02;;
37280;SDS011;23169;41.804;12.596;2023-02-18T03:39:43;35.47;;;20.90;;
37280;SDS011;23169;41.804;12.596;2023-02-18T03:42:16;36.35;;;20.65;;
37280;SDS011;23169;41.804;12.596;2023-02-18T03:44:46;37.90;;;21.25;;
37280;SDS011;23169;41.804;12.596;2023-02-18T03:47:15;34.95;;;21.77;;
37280;SDS011;23169;41.804;12.596;2023-02-18T03:49:44;36.20;;;22.35;;
37280;SDS011;23169;41.804;12.596;2023-02-18T03:52:12;37.60;;;21.27;;
37280;SDS011;23169;41.804;12.596;2023-02-18T03:54:41;36.88;;;22.17;;
37280;SDS011;23169;41.804;12.596;2023-02-18T03:57:10;40.15;;;23.35;;
37280;SDS011;23169;41.804;12.596;2023-02-18T03:59:42;40.15;;;23.67;;
37280;SDS011;23169;41.804;12.596;2023-02-18T04:02:11;39.13;;;23.05;;
37280;SDS011;23169;41.804;12.596;2023-02-18T04:04:40;39.45;;;23.95;;
37280;SDS011;23169;41.804;12.596;2023-02-18T04:07:09;37.40;;;22.70;;
37280;SDS011;23169;41.804;12.596;2023-02-18T04:09:38;36.78;;;22.90;;
37280;SDS011;23169;41.804;12.596;2023-02-18T04:12:07;37.60;;;21.85;;
37280;SDS011;23169;41.804;12.596;2023-02-18T04:14:36;34.70;;;21.42;;
37280;SDS011;23169;41.804;12.596;2023-02-18T04:17:06;36.60;;;21.17;;
37280;SDS011;23169;41.804;12.596;2023-02-18T04:19:49;35.70;;;21.05;;
37280;SDS011;23169;41.804;12.596;2023-02-18T04:22:19;41.85;;;23.25;;
37280;SDS011;23169;41.804;12.596;2023-02-18T04:24:59;39.80;;;21.70;;
37280;SDS011;23169;41.804;12.596;2023-02-18T04:27:28;39.33;;;22.63;;
37280;SDS011;23169;41.804;12.596;2023-02-18T04:29:57;36.17;;;19.98;;
37280;SDS011;23169;41.804;12.596;2023-02-18T04:32:26;34.88;;;19.77;;
37280;SDS011;23169;41.804;12.596;2023-02-18T04:34:58;33.80;;;19.52;;
37280;SDS011;23169;41.804;12.596;2023-02-18T04:37:28;34.97;;;19.83;;
37280;SDS011;23169;41.804;12.596;2023-02-18T04:39:57;33.28;;;17.42;;
37280;SDS011;23169;41.804;12.596;2023-02-18T04:42:28;33.83;;;17.02;;
37280;SDS011;23169;41.804;12.596;2023-02-18T04:44:57;31.27;;;16.33;;
37280;SDS011;23169;41.804;12.596;2023-02-18T04:47:26;31.20;;;17.92;;
37280;SDS011;23169;41.804;12.596;2023-02-18T04:49:55;29.00;;;16.52;;
37280;SDS011;23169;41.804;12.596;2023-02-18T04:52:24;28.55;;;15.43;;
37280;SDS011;23169;41.804;12.596;2023-02-18T04:54:54;31.58;;;17.20;;
37280;SDS011;23169;41.804;12.596;2023-02-18T04:57:22;31.65;;;15.48;;
37280;SDS011;23169;41.804;12.596;2023-02-18T04:59:56;29.48;;;16.02;;
37280;SDS011;23169;41.804;12.596;2023-02-18T05:02:25;29.80;;;15.93;;
37280;SDS011;23169;41.804;12.596;2023-02-18T05:04:53;30.75;;;16.25;;
37280;SDS011;23169;41.804;12.596;2023-02-18T05:07:22;32.28;;;15.48;;
37280;SDS011;23169;41.804;12.596;2023-02-18T05:09:53;29.77;;;16.00;;
37280;SDS011;23169;41.804;12.596;2023-02-18T05:12:21;32.28;;;16.40;;
37280;SDS011;23169;41.804;12.596;2023-02-18T05:14:50;31.95;;;17.10;;
37280;SDS011;23169;41.804;12.596;2023-02-18T05:17:18;31.13;;;16.50;;
37280;SDS011;23169;41.804;12.596;2023-02-18T05:19:49;30.42;;;15.73;;
37280;SDS011;23169;41.804;12.596;2023-02-18T05:22:18;31.90;;;16.63;;
37280;SDS011;23169;41.804;12.596;2023-02-18T05:24:46;29.67;;;15.25;;
37280;SDS011;23169;41.804;12.596;2023-02-18T05:27:15;30.25;;;14.77;;
37280;SDS011;23169;41.804;12.596;2023-02-18T05:29:43;29.05;;;14.80;;
37280;SDS011;23169;41.804;12.596;2023-02-18T05:32:12;29.08;;;15.57;;
37280;SDS011;23169;41.804;12.596;2023-02-18T05:34:40;30.73;;;16.30;;
37280;SDS011;23169;41.804;12.596;2023-02-18T05:37:08;29.35;;;16.00;;
37280;SDS011;23169;41.804;12.596;2023-02-18T05:39:37;27.45;;;14.70;;
37280;SDS011;23169;41.804;12.596;2023-02-18T05:42:06;26.77;;;13.95;;
37280;SDS011;23169;41.804;12.596;2023-02-18T05:44:35;32.63;;;14.93;;
37280;SDS011;23169;41.804;12.596;2023-02-18T05:47:08;29.17;;;14.90;;
37280;SDS011;23169;41.804;12.596;2023-02-18T05:49:39;29.20;;;15.15;;
37280;SDS011;23169;41.804;12.596;2023-02-18T05:52:09;32.13;;;15.45;;
37280;SDS011;23169;41.804;12.596;2023-02-18T05:54:38;29.75;;;15.82;;
37280;SDS011;23169;41.804;12.596;2023-02-18T05:57:06;30.05;;;15.35;;
37280;SDS011;23169;41.804;12.596;2023-02-18T05:59:36;30.02;;;16.00;;
37280;SDS011;23169;41.804;12.596;2023-02-18T06:02:05;30.25;;;15.27;;
37280;SDS011;23169;41.804;12.596;2023-02-18T06:04:34;29.50;;;15.95;;
37280;SDS011;23169;41.804;12.596;2023-02-18T06:07:03;30.75;;;15.98;;
37280;SDS011;23169;41.804;12.596;2023-02-18T06:09:31;28.60;;;16.27;;
37280;SDS011;23169;41.804;12.596;2023-02-18T06:12:00;33.75;;;16.38;;
37280;SDS011;23169;41.804;12.596;2023-02-18T06:14:30;30.55;;;16.02;;
37280;SDS011;23169;41.804;12.596;2023-02-18T06:16:58;32.35;;;17.35;;
37280;SDS011;23169;41.804;12.596;2023-02-18T06:19:27;32.20;;;17.83;;
37280;SDS011;23169;41.804;12.596;2023-02-18T06:21:56;32.80;;;18.08;;
37280;SDS011;23169;41.804;12.596;2023-02-18T06:24:25;31.23;;;16.20;;
37280;SDS011;23169;41.804;12.596;2023-02-18T06:26:53;31.83;;;17.27;;
37280;SDS011;23169;41.804;12.596;2023-02-18T06:29:22;31.92;;;16.95;;
37280;SDS011;23169;41.804;12.596;2023-02-18T06:31:52;34.22;;;17.63;;
37280;SDS011;23169;41.804;12.596;2023-02-18T06:34:21;36.63;;;18.77;;
37280;SDS011;23169;41.804;12.596;2023-02-18T06:36:49;35.55;;;19.67;;
37280;SDS011;23169;41.804;12.596;2023-02-18T06:39:17;35.70;;;19.40;;
37280;SDS011;23169;41.804;12.596;2023-02-18T06:41:46;33.08;;;19.13;;
37280;SDS011;23169;41.804;12.596;2023-02-18T06:44:14;33.78;;;18.77;;
37280;SDS011;23169;41.804;12.596;2023-02-18T06:46:44;34.42;;;19.35;;
37280;SDS011;23169;41.804;12.596;2023-02-18T06:49:12;36.22;;;20.35;;
37280;SDS011;23169;41.804;12.596;2023-02-18T06:51:41;41.67;;;20.10;;
37280;SDS011;23169;41.804;12.596;2023-02-18T06:54:09;34.58;;;19.88;;
37280;SDS011;23169;41.804;12.596;2023-02-18T06:56:37;35.42;;;20.45;;
37280;SDS011;23169;41.804;12.596;2023-02-18T06:59:05;38.38;;;24.85;;
37280;SDS011;23169;41.804;12.596;2023-02-18T07:01:34;38.30;;;23.52;;
37280;SDS011;23169;41.804;12.596;2023-02-18T07:04:03;36.70;;;22.85;;
37280;SDS011;23169;41.804;12.596;2023-02-18T07:06:32;39.55;;;22.27;;
37280;SDS011;23169;41.804;12.596;2023-02-18T07:09:00;36.72;;;22.00;;
37280;SDS011;23169;41.804;12.596;2023-02-18T07:11:29;35.88;;;21.50;;
37280;SDS011;23169;41.804;12.596;2023-02-18T07:13:57;37.30;;;22.65;;
37280;SDS011;23169;41.804;12.596;2023-02-18T07:16:25;34.47;;;22.27;;
37280;SDS011;23169;41.804;12.596;2023-02-18T07:18:54;39.05;;;23.45;;
37280;SDS011;23169;41.804;12.596;2023-02-18T07:21:23;36.22;;;22.83;;
37280;SDS011;23169;41.804;12.596;2023-02-18T07:23:51;36.42;;;21.17;;
37280;SDS011;23169;41.804;12.596;2023-02-18T07:26:19;38.17;;;22.05;;
37280;SDS011;23169;41.804;12.596;2023-02-18T07:28:48;35.42;;;21.10;;
37280;SDS011;23169;41.804;12.596;2023-02-18T07:31:16;48.10;;;25.98;;
37280;SDS011;23169;41.804;12.596;2023-02-18T07:33:44;37.45;;;21.85;;
37280;SDS011;23169;41.804;12.596;2023-02-18T07:36:13;35.85;;;22.13;;
37280;SDS011;23169;41.804;12.596;2023-02-18T07:38:41;37.80;;;22.45;;
37280;SDS011;23169;41.804;12.596;2023-02-18T07:41:16;34.17;;;21.00;;
37280;SDS011;23169;41.804;12.596;2023-02-18T07:43:47;36.60;;;21.25;;
37280;SDS011;23169;41.804;12.596;2023-02-18T07:46:16;39.40;;;21.48;;
37280;SDS011;23169;41.804;12.596;2023-02-18T07:48:45;34.88;;;21.98;;
37280;SDS011;23169;41.804;12.596;2023-02-18T07:51:13;39.00;;;21.50;;
37280;SDS011;23169;41.804;12.596;2023-02-18T07:53:42;36.15;;;21.67;;
37280;SDS011;23169;41.804;12.596;2023-02-18T07:56:10;36.25;;;22.17;;
37280;SDS011;23169;41.804;12.596;2023-02-18T07:58:39;32.88;;;20.35;;
37280;SDS011;23169;41.804;12.596;2023-02-18T08:01:09;36.35;;;20.00;;
37280;SDS011;23169;41.804;12.596;2023-02-18T08:03:40;36.78;;;19.30;;
37280;SDS011;23169;41.804;12.596;2023-02-18T08:06:16;30.00;;;17.92;;
37280;SDS011;23169;41.804;12.596;2023-02-18T08:08:58;32.45;;;18.70;;
37280;SDS011;23169;41.804;12.596;2023-02-18T08:11:26;31.52;;;18.30;;
37280;SDS011;23169;41.804;12.596;2023-02-18T08:13:55;30.38;;;17.55;;
37280;SDS011;23169;41.804;12.596;2023-02-18T08:16:23;33.88;;;18.95;;
37280;SDS011;23169;41.804;12.596;2023-02-18T08:18:51;29.35;;;17.70;;
37280;SDS011;23169;41.804;12.596;2023-02-18T08:21:20;30.83;;;18.67;;
37280;SDS011;23169;41.804;12.596;2023-02-18T08:23:50;32.42;;;19.10;;
37280;SDS011;23169;41.804;12.596;2023-02-18T08:26:19;31.40;;;18.75;;
37280;SDS011;23169;41.804;12.596;2023-02-18T08:28:48;33.70;;;20.00;;
37280;SDS011;23169;41.804;12.596;2023-02-18T08:31:20;30.83;;;18.60;;
37280;SDS011;23169;41.804;12.596;2023-02-18T08:33:54;31.60;;;19.17;;
37280;SDS011;23169;41.804;12.596;2023-02-18T08:36:23;34.05;;;19.80;;
37280;SDS011;23169;41.804;12.596;2023-02-18T08:38:52;32.20;;;19.42;;
37280;SDS011;23169;41.804;12.596;2023-02-18T08:41:21;31.42;;;19.00;;
37280;SDS011;23169;41.804;12.596;2023-02-18T08:43:49;34.50;;;20.13;;
37280;SDS011;23169;41.804;12.596;2023-02-18T08:46:18;34.40;;;20.17;;
37280;SDS011;23169;41.804;12.596;2023-02-18T08:48:47;34.58;;;21.60;;
37280;SDS011;23169;41.804;12.596;2023-02-18T08:51:19;36.50;;;23.30;;
37280;SDS011;23169;41.804;12.596;2023-02-18T08:53:49;37.95;;;24.40;;
37280;SDS011;23169;41.804;12.596;2023-02-18T08:56:17;37.78;;;23.52;;
37280;SDS011;23169;41.804;12.596;2023-02-18T08:58:45;36.70;;;22.98;;
37280;SDS011;23169;41.804;12.596;2023-02-18T09:01:14;34.47;;;23.85;;
37280;SDS011;23169;41.804;12.596;2023-02-18T09:03:43;37.35;;;24.20;;
37280;SDS011;23169;41.804;12.596;2023-02-18T09:06:11;37.08;;;24.02;;
37280;SDS011;23169;41.804;12.596;2023-02-18T09:08:40;34.78;;;21.60;;
37280;SDS011;23169;41.804;12.596;2023-02-18T09:11:08;35.67;;;21.45;;
37280;SDS011;23169;41.804;12.596;2023-02-18T09:13:41;32.45;;;19.20;;
37280;SDS011;23169;41.804;12.596;2023-02-18T09:16:11;31.85;;;19.65;;
37280;SDS011;23169;41.804;12.596;2023-02-18T09:18:41;34.40;;;20.48;;
37280;SDS011;23169;41.804;12.596;2023-02-18T09:21:10;31.40;;;18.42;;
37280;SDS011;23169;41.804;12.596;2023-02-18T09:23:40;30.85;;;17.90;;
37280;SDS011;23169;41.804;12.596;2023-02-18T09:26:10;29.23;;;18.25;;
37280;SDS011;23169;41.804;12.596;2023-02-18T09:28:41;31.33;;;17.17;;
37280;SDS011;23169;41.804;12.596;2023-02-18T09:31:13;30.98;;;18.02;;
37280;SDS011;23169;41.804;12.596;2023-02-18T09:33:44;33.08;;;19.25;;
37280;SDS011;23169;41.804;12.596;2023-02-18T09:36:18;30.33;;;18.42;;
37280;SDS011;23169;41.804;12.596;2023-02-18T09:38:47;29.88;;;16.92;;
37280;SDS011;23169;41.804;12.596;2023-02-18T09:43:50;31.77;;;18.98;;
37280;SDS011;23169;41.804;12.596;2023-02-18T09:46:24;29.67;;;17.85;;
37280;SDS011;23169;41.804;12.596;2023-02-18T09:49:03;29.48;;;17.23;;
37280;SDS011;23169;41.804;12.596;2023-02-18T09:51:39;29.80;;;17.23;;
37280;SDS011;23169;41.804;12.596;2023-02-18T09:54:18;31.23;;;18.05;;
37280;SDS011;23169;41.804;12.596;2023-02-18T09:56:47;31.55;;;18.15;;
37280;SDS011;23169;41.804;12.596;2023-02-18T09:59:17;30.75;;;17.13;;
37280;SDS011;23169;41.804;12.596;2023-02-18T10:01:48;31.48;;;17.55;;
37280;SDS011;23169;41.804;12.596;2023-02-18T10:04:21;29.15;;;17.08;;
37280;SDS011;23169;41.804;12.596;2023-02-18T10:06:59;29.67;;;16.90;;
37280;SDS011;23169;41.804;12.596;2023-02-18T10:09:34;30.80;;;16.10;;
37280;SDS011;23169;41.804;12.596;2023-02-18T10:12:14;27.23;;;14.82;;
37280;SDS011;23169;41.804;12.596;2023-02-18T10:14:49;25.40;;;14.25;;
37280;SDS011;23169;41.804;12.596;2023-02-18T10:17:23;26.80;;;14.07;;
37280;SDS011;23169;41.804;12.596;2023-02-18T10:19:54;25.05;;;13.80;;
37280;SDS011;23169;41.804;12.596;2023-02-18T10:22:26;24.60;;;13.57;;
37280;SDS011;23169;41.804;12.596;2023-02-18T10:24:58;25.77;;;14.18;;
37280;SDS011;23169;41.804;12.596;2023-02-18T10:27:30;23.73;;;13.23;;
37280;SDS011;23169;41.804;12.596;2023-02-18T10:33:07;24.80;;;12.38;;
37280;SDS011;23169;41.804;12.596;2023-02-18T10:38:46;22.50;;;13.10;;
37280;SDS011;23169;41.804;12.596;2023-02-18T10:41:25;22.60;;;11.88;;
37280;SDS011;23169;41.804;12.596;2023-02-18T10:52:25;20.73;;;10.80;;
37280;SDS011;23169;41.804;12.596;2023-02-18T10:54:58;23.85;;;10.15;;
37280;SDS011;23169;41.804;12.596;2023-02-18T10:57:29;19.85;;;9.95;;
37280;SDS011;23169;41.804;12.596;2023-02-18T11:00:00;22.38;;;11.25;;
37280;SDS011;23169;41.804;12.596;2023-02-18T11:02:40;23.40;;;11.90;;
37280;SDS011;23169;41.804;12.596;2023-02-18T11:05:16;20.60;;;10.50;;
37280;SDS011;23169;41.804;12.596;2023-02-18T11:07:46;22.05;;;11.27;;
37280;SDS011;23169;41.804;12.596;2023-02-18T11:10:21;22.27;;;11.68;;
37280;SDS011;23169;41.804;12.596;2023-02-18T11:12:56;21.40;;;11.15;;
37280;SDS011;23169;41.804;12.596;2023-02-18T11:15:28;24.13;;;11.30;;
37280;SDS011;23169;41.804;12.596;2023-02-18T11:18:10;21.20;;;10.60;;
37280;SDS011;23169;41.804;12.596;2023-02-18T11:20:58;19.90;;;10.30;;
37280;SDS011;23169;41.804;12.596;2023-02-18T11:23:30;21.50;;;10.10;;
37280;SDS011;23169;41.804;12.596;2023-02-18T11:28:44;17.75;;;9.38;;
37280;SDS011;23169;41.804;12.596;2023-02-18T11:31:23;18.70;;;9.48;;
37280;SDS011;23169;41.804;12.596;2023-02-18T11:33:54;18.38;;;9.25;;
37280;SDS011;23169;41.804;12.596;2023-02-18T11:36:27;18.23;;;9.50;;
37280;SDS011;23169;41.804;12.596;2023-02-18T11:39:05;19.42;;;9.95;;
37280;SDS011;23169;41.804;12.596;2023-02-18T11:41:53;17.83;;;8.50;;
37280;SDS011;23169;41.804;12.596;2023-02-18T11:44:36;15.43;;;7.90;;
37280;SDS011;23169;41.804;12.596;2023-02-18T11:49:43;12.05;;;6.10;;
37280;SDS011;23169;41.804;12.596;2023-02-18T11:52:26;15.98;;;7.22;;
37280;SDS011;23169;41.804;12.596;2023-02-18T11:57:45;13.38;;;6.60;;
37280;SDS011;23169;41.804;12.596;2023-02-18T12:06:11;14.15;;;7.50;;
37280;SDS011;23169;41.804;12.596;2023-02-18T12:08:50;14.18;;;7.85;;
37280;SDS011;23169;41.804;12.596;2023-02-18T12:11:33;15.13;;;7.82;;
37280;SDS011;23169;41.804;12.596;2023-02-18T12:14:08;14.27;;;7.13;;
37280;SDS011;23169;41.804;12.596;2023-02-18T12:24:55;16.42;;;7.38;;
37280;SDS011;23169;41.804;12.596;2023-02-18T12:33:14;15.88;;;7.75;;
37280;SDS011;23169;41.804;12.596;2023-02-18T12:38:54;18.58;;;8.73;;
37280;SDS011;23169;41.804;12.596;2023-02-18T12:49:47;20.80;;;8.25;;
37280;SDS011;23169;41.804;12.596;2023-02-18T12:52:38;18.60;;;8.35;;
37280;SDS011;23169;41.804;12.596;2023-02-18T13:00:56;15.50;;;8.10;;
37280;SDS011;23169;41.804;12.596;2023-02-18T13:03:42;18.10;;;7.90;;
37280;SDS011;23169;41.804;12.596;2023-02-18T13:09:09;15.13;;;7.90;;
37280;SDS011;23169;41.804;12.596;2023-02-18T13:12:09;16.48;;;7.90;;
37280;SDS011;23169;41.804;12.596;2023-02-18T13:14:52;12.75;;;6.85;;
37280;SDS011;23169;41.804;12.596;2023-02-18T13:17:26;15.43;;;7.90;;
37280;SDS011;23169;41.804;12.596;2023-02-18T13:19:58;19.42;;;8.85;;
37280;SDS011;23169;41.804;12.596;2023-02-18T13:22:31;15.00;;;8.18;;
37280;SDS011;23169;41.804;12.596;2023-02-18T13:25:01;13.18;;;7.35;;
37280;SDS011;23169;41.804;12.596;2023-02-18T13:27:32;13.55;;;7.10;;
37280;SDS011;23169;41.804;12.596;2023-02-18T13:33:00;14.32;;;6.85;;
37280;SDS011;23169;41.804;12.596;2023-02-18T13:35:51;12.18;;;6.88;;
37280;SDS011;23169;41.804;12.596;2023-02-18T13:41:39;14.23;;;7.38;;
37280;SDS011;23169;41.804;12.596;2023-02-18T13:46:57;13.50;;;6.45;;
37280;SDS011;23169;41.804;12.596;2023-02-18T13:49:30;16.48;;;7.18;;
37280;SDS011;23169;41.804;12.596;2023-02-18T13:52:02;13.95;;;7.22;;
37280;SDS011;23169;41.804;12.596;2023-02-18T13:54:42;13.43;;;7.00;;
37280;SDS011;23169;41.804;12.596;2023-02-18T13:57:14;12.20;;;7.10;;
37280;SDS011;23169;41.804;12.596;2023-02-18T13:59:56;15.60;;;7.70;;
37280;SDS011;23169;41.804;12.596;2023-02-18T14:02:30;15.98;;;8.00;;
37280;SDS011;23169;41.804;12.596;2023-02-18T14:07:37;14.43;;;6.95;;
37280;SDS011;23169;41.804;12.596;2023-02-18T14:20:31;15.05;;;7.32;;
37280;SDS011;23169;41.804;12.596;2023-02-18T14:25:57;12.38;;;6.18;;
37280;SDS011;23169;41.804;12.596;2023-02-18T14:33:41;12.30;;;7.00;;
37280;SDS011;23169;41.804;12.596;2023-02-18T14:36:38;15.98;;;6.50;;
37280;SDS011;23169;41.804;12.596;2023-02-18T14:39:29;14.80;;;6.72;;
37280;SDS011;23169;41.804;12.596;2023-02-18T14:49:44;12.73;;;6.72;;
37280;SDS011;23169;41.804;12.596;2023-02-18T14:54:55;13.15;;;6.78;;
37280;SDS011;23169;41.804;12.596;2023-02-18T14:57:37;12.88;;;6.32;;
37280;SDS011;23169;41.804;12.596;2023-02-18T15:00:16;15.57;;;6.65;;
37280;SDS011;23169;41.804;12.596;2023-02-18T15:02:52;14.63;;;6.10;;
37280;SDS011;23169;41.804;12.596;2023-02-18T15:05:22;16.63;;;7.40;;
37280;SDS011;23169;41.804;12.596;2023-02-18T15:08:05;18.00;;;8.10;;
37280;SDS011;23169;41.804;12.596;2023-02-18T15:10:45;14.65;;;7.07;;
37280;SDS011;23169;41.804;12.596;2023-02-18T15:13:18;16.50;;;7.97;;
37280;SDS011;23169;41.804;12.596;2023-02-18T15:16:05;15.05;;;7.32;;
37280;SDS011;23169;41.804;12.596;2023-02-18T15:18:37;19.95;;;7.70;;
37280;SDS011;23169;41.804;12.596;2023-02-18T15:21:18;13.20;;;7.20;;
37280;SDS011;23169;41.804;12.596;2023-02-18T15:23:51;14.38;;;7.25;;
37280;SDS011;23169;41.804;12.596;2023-02-18T15:26:20;14.43;;;7.60;;
37280;SDS011;23169;41.804;12.596;2023-02-18T15:28:52;14.00;;;6.53;;
37280;SDS011;23169;41.804;12.596;2023-02-18T15:31:30;11.68;;;6.75;;
37280;SDS011;23169;41.804;12.596;2023-02-18T15:34:16;13.93;;;7.65;;
37280;SDS011;23169;41.804;12.596;2023-02-18T15:37:05;17.10;;;7.97;;
37280;SDS011;23169;41.804;12.596;2023-02-18T15:39:37;14.48;;;7.70;;
37280;SDS011;23169;41.804;12.596;2023-02-18T15:44:42;24.30;;;10.18;;
37280;SDS011;23169;41.804;12.596;2023-02-18T15:47:13;19.17;;;8.18;;
37280;SDS011;23169;41.804;12.596;2023-02-18T15:49:46;18.23;;;7.88;;
37280;SDS011;23169;41.804;12.596;2023-02-18T15:52:27;21.95;;;9.20;;
37280;SDS011;23169;41.804;12.596;2023-02-18T15:55:12;17.35;;;7.80;;
37280;SDS011;23169;41.804;12.596;2023-02-18T15:58:02;18.02;;;7.20;;
37280;SDS011;23169;41.804;12.596;2023-02-18T16:00:39;15.63;;;7.55;;
37280;SDS011;23169;41.804;12.596;2023-02-18T16:03:15;12.27;;;5.95;;
37280;SDS011;23169;41.804;12.596;2023-02-18T16:08:58;20.48;;;8.50;;
37280;SDS011;23169;41.804;12.596;2023-02-18T16:11:31;18.25;;;7.65;;
37280;SDS011;23169;41.804;12.596;2023-02-18T16:14:03;18.88;;;8.77;;
37280;SDS011;23169;41.804;12.596;2023-02-18T16:16:34;19.35;;;7.90;;
37280;SDS011;23169;41.804;12.596;2023-02-18T16:19:03;18.48;;;8.82;;
37280;SDS011;23169;41.804;12.596;2023-02-18T16:21:37;20.42;;;9.23;;
37280;SDS011;23169;41.804;12.596;2023-02-18T16:24:24;22.80;;;10.00;;
37280;SDS011;23169;41.804;12.596;2023-02-18T16:26:58;22.35;;;10.70;;
37280;SDS011;23169;41.804;12.596;2023-02-18T16:29:35;20.95;;;9.80;;
37280;SDS011;23169;41.804;12.596;2023-02-18T16:32:07;21.13;;;10.35;;
37280;SDS011;23169;41.804;12.596;2023-02-18T16:34:35;21.15;;;10.15;;
37280;SDS011;23169;41.804;12.596;2023-02-18T16:37:04;20.02;;;9.32;;
37280;SDS011;23169;41.804;12.596;2023-02-18T16:39:51;21.55;;;10.38;;
37280;SDS011;23169;41.804;12.596;2023-02-18T16:42:21;21.70;;;10.15;;
37280;SDS011;23169;41.804;12.596;2023-02-18T16:44:52;19.50;;;9.30;;
37280;SDS011;23169;41.804;12.596;2023-02-18T16:47:21;19.67;;;9.32;;
37280;SDS011;23169;41.804;12.596;2023-02-18T16:49:49;20.88;;;10.02;;
37280;SDS011;23169;41.804;12.596;2023-02-18T16:52:18;20.55;;;9.98;;
37280;SDS011;23169;41.804;12.596;2023-02-18T16:54:46;26.55;;;11.63;;
37280;SDS011;23169;41.804;12.596;2023-02-18T16:57:14;19.40;;;9.90;;
37280;SDS011;23169;41.804;12.596;2023-02-18T16:59:43;20.30;;;10.05;;
37280;SDS011;23169;41.804;12.596;2023-02-18T17:02:17;19.95;;;9.00;;
37280;SDS011;23169;41.804;12.596;2023-02-18T17:04:48;20.80;;;10.00;;
37280;SDS011;23169;41.804;12.596;2023-02-18T17:07:20;22.48;;;9.52;;
37280;SDS011;23169;41.804;12.596;2023-02-18T17:09:49;20.02;;;10.18;;
37280;SDS011;23169;41.804;12.596;2023-02-18T17:12:17;27.80;;;12.73;;
37280;SDS011;23169;41.804;12.596;2023-02-18T17:14:45;25.35;;;13.45;;